sensor_id;sensor_type;location;lat;lon;timestamp;P1;durP1;ratioP1;P2;durP2;ratioP2
31284;SDS011;56605;51.516;6.742;2022-10-16T00:01:20;9.52;;;3.20;;
31284;SDS011;56605;51.516;6.742;2022-10-16T00:03:46;9.38;;;4.30;;
31284;SDS011;56605;51.516;6.742;2022-10-16T00:06:11;14.25;;;4.43;;
31284;SDS011;56605;51.516;6.742;2022-10-16T00:08:37;7.95;;;3.30;;
31284;SDS011;56605;51.516;6.742;2022-10-16T00:11:16;7.95;;;2.35;;
31284;SDS011;56605;51.516;6.742;2022-10-16T00:13:41;5.63;;;3.40;;
31284;SDS011;56605;51.516;6.742;2022-10-16T00:16:07;8.25;;;3.35;;
31284;SDS011;56605;51.516;6.742;2022-10-16T00:18:33;9.95;;;2.80;;
31284;SDS011;56605;51.516;6.742;2022-10-16T00:21:05;8.70;;;3.58;;
31284;SDS011;56605;51.516;6.742;2022-10-16T00:23:31;12.32;;;5.55;;
31284;SDS011;56605;51.516;6.742;2022-10-16T00:25:57;15.65;;;4.85;;
31284;SDS011;56605;51.516;6.742;2022-10-16T00:28:22;13.57;;;4.13;;
31284;SDS011;56605;51.516;6.742;2022-10-16T00:30:47;8.77;;;4.15;;
31284;SDS011;56605;51.516;6.742;2022-10-16T00:33:13;22.57;;;4.27;;
31284;SDS011;56605;51.516;6.742;2022-10-16T00:35:38;5.33;;;3.17;;
31284;SDS011;56605;51.516;6.742;2022-10-16T00:38:03;7.60;;;2.93;;
31284;SDS011;56605;51.516;6.742;2022-10-16T00:40:28;8.17;;;3.33;;
31284;SDS011;56605;51.516;6.742;2022-10-16T00:42:54;9.50;;;3.58;;
31284;SDS011;56605;51.516;6.742;2022-10-16T00:45:19;11.03;;;4.53;;
31284;SDS011;56605;51.516;6.742;2022-10-16T00:47:45;10.37;;;4.87;;
31284;SDS011;56605;51.516;6.742;2022-10-16T00:50:21;12.88;;;5.28;;
31284;SDS011;56605;51.516;6.742;2022-10-16T00:52:48;12.52;;;4.88;;
31284;SDS011;56605;51.516;6.742;2022-10-16T00:55:14;10.10;;;4.60;;
31284;SDS011;56605;51.516;6.742;2022-10-16T00:57:40;15.30;;;5.20;;
31284;SDS011;56605;51.516;6.742;2022-10-16T01:00:07;10.50;;;4.45;;
31284;SDS011;56605;51.516;6.742;2022-10-16T01:02:33;11.73;;;5.00;;
31284;SDS011;56605;51.516;6.742;2022-10-16T01:04:58;12.18;;;5.60;;
31284;SDS011;56605;51.516;6.742;2022-10-16T01:12:45;12.57;;;4.97;;
31284;SDS011;56605;51.516;6.742;2022-10-16T01:15:14;8.48;;;3.90;;
31284;SDS011;56605;51.516;6.742;2022-10-16T01:20:10;14.15;;;3.58;;
31284;SDS011;56605;51.516;6.742;2022-10-16T01:25:05;8.35;;;3.20;;
31284;SDS011;56605;51.516;6.742;2022-10-16T01:27:34;9.63;;;3.47;;
31284;SDS011;56605;51.516;6.742;2022-10-16T01:35:27;7.82;;;3.70;;
31284;SDS011;56605;51.516;6.742;2022-10-16T01:40:20;14.82;;;5.22;;
31284;SDS011;56605;51.516;6.742;2022-10-16T01:43:05;17.95;;;6.80;;
31284;SDS011;56605;51.516;6.742;2022-10-16T01:45:31;15.52;;;5.97;;
31284;SDS011;56605;51.516;6.742;2022-10-16T01:47:57;12.27;;;5.28;;
31284;SDS011;56605;51.516;6.742;2022-10-16T01:50:24;21.10;;;5.00;;
31284;SDS011;56605;51.516;6.742;2022-10-16T01:52:50;16.92;;;5.32;;
31284;SDS011;56605;51.516;6.742;2022-10-16T01:55:22;19.83;;;5.75;;
31284;SDS011;56605;51.516;6.742;2022-10-16T01:57:48;14.10;;;4.57;;
31284;SDS011;56605;51.516;6.742;2022-10-16T02:00:14;16.67;;;3.92;;
31284;SDS011;56605;51.516;6.742;2022-10-16T02:02:42;12.13;;;4.18;;
31284;SDS011;56605;51.516;6.742;2022-10-16T02:07:38;22.92;;;5.10;;
31284;SDS011;56605;51.516;6.742;2022-10-16T02:10:03;11.33;;;3.33;;
31284;SDS011;56605;51.516;6.742;2022-10-16T02:12:30;19.90;;;3.88;;
31284;SDS011;56605;51.516;6.742;2022-10-16T02:14:56;16.70;;;3.15;;
31284;SDS011;56605;51.516;6.742;2022-10-16T02:17:21;11.75;;;3.65;;
31284;SDS011;56605;51.516;6.742;2022-10-16T02:19:47;16.48;;;3.97;;
31284;SDS011;56605;51.516;6.742;2022-10-16T02:22:17;16.00;;;3.95;;
31284;SDS011;56605;51.516;6.742;2022-10-16T02:27:15;16.23;;;4.55;;
31284;SDS011;56605;51.516;6.742;2022-10-16T02:29:45;16.45;;;4.20;;
31284;SDS011;56605;51.516;6.742;2022-10-16T02:32:13;10.60;;;3.70;;
31284;SDS011;56605;51.516;6.742;2022-10-16T02:34:40;9.48;;;3.40;;
31284;SDS011;56605;51.516;6.742;2022-10-16T02:37:05;9.35;;;3.17;;
31284;SDS011;56605;51.516;6.742;2022-10-16T02:39:31;10.75;;;3.50;;
31284;SDS011;56605;51.516;6.742;2022-10-16T02:41:57;15.85;;;3.80;;
31284;SDS011;56605;51.516;6.742;2022-10-16T02:44:22;11.13;;;3.50;;
31284;SDS011;56605;51.516;6.742;2022-10-16T02:46:48;14.53;;;3.70;;
31284;SDS011;56605;51.516;6.742;2022-10-16T02:49:13;6.83;;;2.73;;
31284;SDS011;56605;51.516;6.742;2022-10-16T02:51:38;11.10;;;2.93;;
31284;SDS011;56605;51.516;6.742;2022-10-16T02:54:03;9.55;;;2.90;;
31284;SDS011;56605;51.516;6.742;2022-10-16T02:56:29;7.72;;;3.40;;
31284;SDS011;56605;51.516;6.742;2022-10-16T02:58:55;14.77;;;3.40;;
31284;SDS011;56605;51.516;6.742;2022-10-16T03:01:20;21.17;;;3.35;;
31284;SDS011;56605;51.516;6.742;2022-10-16T03:03:45;11.95;;;3.17;;
31284;SDS011;56605;51.516;6.742;2022-10-16T03:06:10;4.07;;;2.42;;
31284;SDS011;56605;51.516;6.742;2022-10-16T03:08:35;7.65;;;2.25;;
31284;SDS011;56605;51.516;6.742;2022-10-16T03:11:01;11.03;;;2.07;;
31284;SDS011;56605;51.516;6.742;2022-10-16T03:13:26;12.93;;;2.70;;
31284;SDS011;56605;51.516;6.742;2022-10-16T03:15:51;9.50;;;2.50;;
31284;SDS011;56605;51.516;6.742;2022-10-16T03:18:16;10.23;;;2.13;;
31284;SDS011;56605;51.516;6.742;2022-10-16T03:20:44;15.57;;;2.83;;
31284;SDS011;56605;51.516;6.742;2022-10-16T03:23:10;9.45;;;2.55;;
31284;SDS011;56605;51.516;6.742;2022-10-16T03:25:35;7.68;;;2.15;;
31284;SDS011;56605;51.516;6.742;2022-10-16T03:28:00;9.30;;;2.30;;
31284;SDS011;56605;51.516;6.742;2022-10-16T03:30:26;6.72;;;2.40;;
31284;SDS011;56605;51.516;6.742;2022-10-16T03:32:51;6.35;;;1.80;;
31284;SDS011;56605;51.516;6.742;2022-10-16T03:35:19;13.82;;;2.58;;
31284;SDS011;56605;51.516;6.742;2022-10-16T03:37:44;15.50;;;2.92;;
31284;SDS011;56605;51.516;6.742;2022-10-16T03:40:09;14.40;;;2.93;;
31284;SDS011;56605;51.516;6.742;2022-10-16T03:42:35;16.45;;;3.30;;
31284;SDS011;56605;51.516;6.742;2022-10-16T03:45:00;16.63;;;2.63;;
31284;SDS011;56605;51.516;6.742;2022-10-16T03:47:25;9.53;;;3.70;;
31284;SDS011;56605;51.516;6.742;2022-10-16T03:49:50;7.35;;;2.15;;
31284;SDS011;56605;51.516;6.742;2022-10-16T03:52:16;7.73;;;1.87;;
31284;SDS011;56605;51.516;6.742;2022-10-16T03:54:41;6.55;;;1.90;;
31284;SDS011;56605;51.516;6.742;2022-10-16T03:57:06;5.57;;;1.92;;
31284;SDS011;56605;51.516;6.742;2022-10-16T03:59:31;12.75;;;2.08;;
31284;SDS011;56605;51.516;6.742;2022-10-16T04:01:56;7.13;;;3.30;;
31284;SDS011;56605;51.516;6.742;2022-10-16T04:04:22;6.72;;;1.95;;
31284;SDS011;56605;51.516;6.742;2022-10-16T04:06:47;10.97;;;2.17;;
31284;SDS011;56605;51.516;6.742;2022-10-16T04:09:12;5.20;;;1.47;;
31284;SDS011;56605;51.516;6.742;2022-10-16T04:11:37;5.03;;;1.60;;
31284;SDS011;56605;51.516;6.742;2022-10-16T04:14:02;11.68;;;2.05;;
31284;SDS011;56605;51.516;6.742;2022-10-16T04:16:28;8.10;;;1.83;;
31284;SDS011;56605;51.516;6.742;2022-10-16T04:18:53;4.70;;;1.60;;
31284;SDS011;56605;51.516;6.742;2022-10-16T04:21:18;3.60;;;1.37;;
31284;SDS011;56605;51.516;6.742;2022-10-16T04:23:43;7.93;;;1.67;;
31284;SDS011;56605;51.516;6.742;2022-10-16T04:26:08;1.93;;;1.30;;
31284;SDS011;56605;51.516;6.742;2022-10-16T04:28:35;6.35;;;1.73;;
31284;SDS011;56605;51.516;6.742;2022-10-16T04:31:00;7.87;;;1.90;;
31284;SDS011;56605;51.516;6.742;2022-10-16T04:33:28;4.00;;;1.48;;
31284;SDS011;56605;51.516;6.742;2022-10-16T04:35:56;7.57;;;2.77;;
31284;SDS011;56605;51.516;6.742;2022-10-16T04:38:22;9.68;;;2.70;;
31284;SDS011;56605;51.516;6.742;2022-10-16T04:40:47;8.70;;;3.03;;
31284;SDS011;56605;51.516;6.742;2022-10-16T04:43:12;21.73;;;3.93;;
31284;SDS011;56605;51.516;6.742;2022-10-16T04:45:37;13.30;;;3.03;;
31284;SDS011;56605;51.516;6.742;2022-10-16T04:48:02;8.93;;;2.13;;
31284;SDS011;56605;51.516;6.742;2022-10-16T04:50:28;13.38;;;3.95;;
31284;SDS011;56605;51.516;6.742;2022-10-16T04:52:53;10.25;;;3.47;;
31284;SDS011;56605;51.516;6.742;2022-10-16T04:55:18;10.97;;;2.80;;
31284;SDS011;56605;51.516;6.742;2022-10-16T04:57:43;8.85;;;2.15;;
31284;SDS011;56605;51.516;6.742;2022-10-16T05:00:08;15.50;;;3.33;;
31284;SDS011;56605;51.516;6.742;2022-10-16T05:02:34;9.35;;;3.60;;
31284;SDS011;56605;51.516;6.742;2022-10-16T05:04:59;12.38;;;3.20;;
31284;SDS011;56605;51.516;6.742;2022-10-16T05:07:24;11.13;;;2.65;;
31284;SDS011;56605;51.516;6.742;2022-10-16T05:09:50;15.02;;;3.22;;
31284;SDS011;56605;51.516;6.742;2022-10-16T05:12:15;9.68;;;3.00;;
31284;SDS011;56605;51.516;6.742;2022-10-16T05:14:40;9.07;;;2.70;;
31284;SDS011;56605;51.516;6.742;2022-10-16T05:17:05;6.32;;;2.97;;
31284;SDS011;56605;51.516;6.742;2022-10-16T05:19:30;9.53;;;2.63;;
31284;SDS011;56605;51.516;6.742;2022-10-16T05:21:56;10.80;;;2.60;;
31284;SDS011;56605;51.516;6.742;2022-10-16T05:24:21;13.20;;;2.20;;
31284;SDS011;56605;51.516;6.742;2022-10-16T05:26:46;3.83;;;2.55;;
31284;SDS011;56605;51.516;6.742;2022-10-16T05:29:11;6.93;;;2.70;;
31284;SDS011;56605;51.516;6.742;2022-10-16T05:31:37;7.30;;;1.90;;
31284;SDS011;56605;51.516;6.742;2022-10-16T05:34:02;10.30;;;2.60;;
31284;SDS011;56605;51.516;6.742;2022-10-16T05:36:27;14.00;;;2.37;;
31284;SDS011;56605;51.516;6.742;2022-10-16T05:38:52;4.28;;;2.53;;
31284;SDS011;56605;51.516;6.742;2022-10-16T05:41:18;8.82;;;2.67;;
31284;SDS011;56605;51.516;6.742;2022-10-16T05:43:46;6.80;;;2.42;;
31284;SDS011;56605;51.516;6.742;2022-10-16T05:46:11;7.35;;;2.10;;
31284;SDS011;56605;51.516;6.742;2022-10-16T05:48:37;11.90;;;3.20;;
31284;SDS011;56605;51.516;6.742;2022-10-16T05:51:03;3.53;;;1.93;;
31284;SDS011;56605;51.516;6.742;2022-10-16T05:53:29;11.80;;;2.90;;
31284;SDS011;56605;51.516;6.742;2022-10-16T05:55:54;17.55;;;3.08;;
31284;SDS011;56605;51.516;6.742;2022-10-16T05:58:20;12.65;;;4.28;;
31284;SDS011;56605;51.516;6.742;2022-10-16T06:00:52;13.27;;;5.93;;
31284;SDS011;56605;51.516;6.742;2022-10-16T06:03:17;12.18;;;4.60;;
31284;SDS011;56605;51.516;6.742;2022-10-16T06:05:42;16.60;;;5.77;;
31284;SDS011;56605;51.516;6.742;2022-10-16T06:08:07;17.57;;;6.63;;
31284;SDS011;56605;51.516;6.742;2022-10-16T06:10:33;16.63;;;5.03;;
31284;SDS011;56605;51.516;6.742;2022-10-16T06:12:58;10.93;;;4.73;;
31284;SDS011;56605;51.516;6.742;2022-10-16T06:15:23;11.00;;;4.80;;
31284;SDS011;56605;51.516;6.742;2022-10-16T06:17:48;15.70;;;4.77;;
31284;SDS011;56605;51.516;6.742;2022-10-16T06:20:13;20.60;;;5.67;;
31284;SDS011;56605;51.516;6.742;2022-10-16T06:22:38;28.98;;;6.20;;
31284;SDS011;56605;51.516;6.742;2022-10-16T06:25:04;16.90;;;5.33;;
31284;SDS011;56605;51.516;6.742;2022-10-16T06:27:29;10.48;;;5.18;;
31284;SDS011;56605;51.516;6.742;2022-10-16T06:29:54;17.00;;;4.90;;
31284;SDS011;56605;51.516;6.742;2022-10-16T06:32:19;16.30;;;5.33;;
31284;SDS011;56605;51.516;6.742;2022-10-16T06:34:45;10.77;;;4.78;;
31284;SDS011;56605;51.516;6.742;2022-10-16T06:37:10;27.03;;;6.07;;
31284;SDS011;56605;51.516;6.742;2022-10-16T06:39:35;9.40;;;4.37;;
31284;SDS011;56605;51.516;6.742;2022-10-16T06:42:01;14.13;;;4.23;;
31284;SDS011;56605;51.516;6.742;2022-10-16T06:44:26;19.30;;;3.83;;
31284;SDS011;56605;51.516;6.742;2022-10-16T06:46:51;19.90;;;4.40;;
31284;SDS011;56605;51.516;6.742;2022-10-16T06:49:17;9.85;;;3.58;;
31284;SDS011;56605;51.516;6.742;2022-10-16T06:51:47;13.13;;;3.42;;
31284;SDS011;56605;51.516;6.742;2022-10-16T06:54:12;12.77;;;4.27;;
31284;SDS011;56605;51.516;6.742;2022-10-16T06:56:37;5.50;;;2.90;;
31284;SDS011;56605;51.516;6.742;2022-10-16T06:59:02;10.52;;;4.63;;
31284;SDS011;56605;51.516;6.742;2022-10-16T07:01:28;8.57;;;3.70;;
31284;SDS011;56605;51.516;6.742;2022-10-16T07:03:53;5.07;;;3.22;;
31284;SDS011;56605;51.516;6.742;2022-10-16T07:06:19;17.07;;;5.70;;
31284;SDS011;56605;51.516;6.742;2022-10-16T07:08:45;9.73;;;4.28;;
31284;SDS011;56605;51.516;6.742;2022-10-16T07:11:11;10.18;;;3.63;;
31284;SDS011;56605;51.516;6.742;2022-10-16T07:13:37;5.95;;;2.90;;
31284;SDS011;56605;51.516;6.742;2022-10-16T07:16:13;4.78;;;2.83;;
31284;SDS011;56605;51.516;6.742;2022-10-16T07:18:39;8.25;;;3.30;;
31284;SDS011;56605;51.516;6.742;2022-10-16T07:21:38;12.73;;;4.53;;
31284;SDS011;56605;51.516;6.742;2022-10-16T07:24:00;9.07;;;3.88;;
31284;SDS011;56605;51.516;6.742;2022-10-16T07:26:29;8.20;;;3.70;;
31284;SDS011;56605;51.516;6.742;2022-10-16T07:28:55;8.27;;;3.53;;
31284;SDS011;56605;51.516;6.742;2022-10-16T07:31:20;16.08;;;4.68;;
31284;SDS011;56605;51.516;6.742;2022-10-16T07:33:46;13.75;;;3.45;;
31284;SDS011;56605;51.516;6.742;2022-10-16T07:36:13;7.00;;;3.13;;
31284;SDS011;56605;51.516;6.742;2022-10-16T07:38:38;7.72;;;2.80;;
31284;SDS011;56605;51.516;6.742;2022-10-16T07:41:04;5.00;;;2.92;;
31284;SDS011;56605;51.516;6.742;2022-10-16T07:43:30;8.75;;;3.30;;
31284;SDS011;56605;51.516;6.742;2022-10-16T07:45:56;5.97;;;3.15;;
31284;SDS011;56605;51.516;6.742;2022-10-16T07:48:21;7.22;;;3.53;;
31284;SDS011;56605;51.516;6.742;2022-10-16T07:50:47;10.05;;;3.25;;
31284;SDS011;56605;51.516;6.742;2022-10-16T07:53:12;6.88;;;3.13;;
31284;SDS011;56605;51.516;6.742;2022-10-16T07:55:38;7.40;;;3.60;;
31284;SDS011;56605;51.516;6.742;2022-10-16T07:58:03;10.15;;;3.53;;
31284;SDS011;56605;51.516;6.742;2022-10-16T08:00:29;12.82;;;3.47;;
31284;SDS011;56605;51.516;6.742;2022-10-16T08:02:54;5.27;;;2.47;;
31284;SDS011;56605;51.516;6.742;2022-10-16T08:05:19;9.00;;;3.20;;
31284;SDS011;56605;51.516;6.742;2022-10-16T08:07:48;5.95;;;3.22;;
31284;SDS011;56605;51.516;6.742;2022-10-16T08:10:16;10.82;;;4.70;;
31284;SDS011;56605;51.516;6.742;2022-10-16T08:12:42;11.18;;;4.32;;
31284;SDS011;56605;51.516;6.742;2022-10-16T08:15:07;11.23;;;3.80;;
31284;SDS011;56605;51.516;6.742;2022-10-16T08:17:33;8.80;;;4.60;;
31284;SDS011;56605;51.516;6.742;2022-10-16T08:19:58;11.20;;;4.13;;
31284;SDS011;56605;51.516;6.742;2022-10-16T08:22:23;8.10;;;2.63;;
31284;SDS011;56605;51.516;6.742;2022-10-16T08:24:48;7.73;;;2.43;;
31284;SDS011;56605;51.516;6.742;2022-10-16T08:27:13;3.47;;;1.90;;
31284;SDS011;56605;51.516;6.742;2022-10-16T08:29:38;7.77;;;2.20;;
31284;SDS011;56605;51.516;6.742;2022-10-16T08:32:04;4.90;;;1.60;;
31284;SDS011;56605;51.516;6.742;2022-10-16T08:34:29;5.00;;;1.40;;
31284;SDS011;56605;51.516;6.742;2022-10-16T08:36:54;5.65;;;1.42;;
31284;SDS011;56605;51.516;6.742;2022-10-16T08:39:20;4.13;;;1.40;;
31284;SDS011;56605;51.516;6.742;2022-10-16T08:46:55;6.25;;;2.15;;
31284;SDS011;56605;51.516;6.742;2022-10-16T08:49:25;2.55;;;1.17;;
31284;SDS011;56605;51.516;6.742;2022-10-16T08:51:50;2.03;;;1.10;;
31284;SDS011;56605;51.516;6.742;2022-10-16T08:56:50;3.65;;;1.30;;
31284;SDS011;56605;51.516;6.742;2022-10-16T08:59:16;2.30;;;0.93;;
31284;SDS011;56605;51.516;6.742;2022-10-16T09:01:44;1.50;;;1.05;;
31284;SDS011;56605;51.516;6.742;2022-10-16T09:07:04;4.53;;;1.85;;
31284;SDS011;56605;51.516;6.742;2022-10-16T09:17:00;3.25;;;0.88;;
31284;SDS011;56605;51.516;6.742;2022-10-16T09:19:40;6.10;;;1.27;;
31284;SDS011;56605;51.516;6.742;2022-10-16T09:22:12;7.30;;;1.33;;
31284;SDS011;56605;51.516;6.742;2022-10-16T09:24:38;3.67;;;1.33;;
31284;SDS011;56605;51.516;6.742;2022-10-16T09:27:03;4.70;;;1.33;;
31284;SDS011;56605;51.516;6.742;2022-10-16T09:29:28;2.37;;;1.33;;
31284;SDS011;56605;51.516;6.742;2022-10-16T09:31:54;1.90;;;1.00;;
31284;SDS011;56605;51.516;6.742;2022-10-16T09:34:32;2.05;;;1.10;;
31284;SDS011;56605;51.516;6.742;2022-10-16T09:36:59;1.88;;;1.00;;
31284;SDS011;56605;51.516;6.742;2022-10-16T09:39:25;1.35;;;0.98;;
31284;SDS011;56605;51.516;6.742;2022-10-16T09:41:50;5.63;;;1.27;;
31284;SDS011;56605;51.516;6.742;2022-10-16T09:47:00;5.32;;;0.90;;
31284;SDS011;56605;51.516;6.742;2022-10-16T09:49:26;3.60;;;0.75;;
31284;SDS011;56605;51.516;6.742;2022-10-16T09:52:02;2.60;;;1.02;;
31284;SDS011;56605;51.516;6.742;2022-10-16T09:54:28;4.13;;;1.02;;
31284;SDS011;56605;51.516;6.742;2022-10-16T09:57:03;4.63;;;0.80;;
31284;SDS011;56605;51.516;6.742;2022-10-16T09:59:28;2.92;;;0.90;;
31284;SDS011;56605;51.516;6.742;2022-10-16T10:01:55;5.88;;;1.35;;
31284;SDS011;56605;51.516;6.742;2022-10-16T10:04:24;1.50;;;0.68;;
31284;SDS011;56605;51.516;6.742;2022-10-16T10:06:54;3.22;;;0.82;;
31284;SDS011;56605;51.516;6.742;2022-10-16T10:09:24;3.75;;;1.10;;
31284;SDS011;56605;51.516;6.742;2022-10-16T10:11:57;5.75;;;0.70;;
31284;SDS011;56605;51.516;6.742;2022-10-16T10:14:23;5.70;;;1.45;;
31284;SDS011;56605;51.516;6.742;2022-10-16T10:16:49;5.50;;;0.80;;
31284;SDS011;56605;51.516;6.742;2022-10-16T10:19:21;2.20;;;0.98;;
31284;SDS011;56605;51.516;6.742;2022-10-16T10:21:47;2.33;;;1.00;;
31284;SDS011;56605;51.516;6.742;2022-10-16T10:24:13;1.80;;;0.60;;
31284;SDS011;56605;51.516;6.742;2022-10-16T10:26:41;3.67;;;1.77;;
31284;SDS011;56605;51.516;6.742;2022-10-16T10:34:22;4.60;;;0.80;;
31284;SDS011;56605;51.516;6.742;2022-10-16T10:36:56;2.53;;;1.17;;
31284;SDS011;56605;51.516;6.742;2022-10-16T10:39:32;3.67;;;0.70;;
31284;SDS011;56605;51.516;6.742;2022-10-16T10:45:02;1.23;;;0.60;;
31284;SDS011;56605;51.516;6.742;2022-10-16T10:53:02;4.03;;;0.50;;
31284;SDS011;56605;51.516;6.742;2022-10-16T10:58:04;5.78;;;1.38;;
31284;SDS011;56605;51.516;6.742;2022-10-16T11:06:05;5.18;;;0.70;;
31284;SDS011;56605;51.516;6.742;2022-10-16T11:08:33;1.63;;;0.40;;
31284;SDS011;56605;51.516;6.742;2022-10-16T11:11:01;0.93;;;0.73;;
31284;SDS011;56605;51.516;6.742;2022-10-16T11:13:34;4.72;;;1.58;;
31284;SDS011;56605;51.516;6.742;2022-10-16T11:16:02;1.10;;;0.43;;
31284;SDS011;56605;51.516;6.742;2022-10-16T11:20:56;4.90;;;0.80;;
31284;SDS011;56605;51.516;6.742;2022-10-16T11:23:42;0.90;;;0.50;;
31284;SDS011;56605;51.516;6.742;2022-10-16T11:26:14;7.93;;;0.90;;
31284;SDS011;56605;51.516;6.742;2022-10-16T11:28:50;2.53;;;0.80;;
31284;SDS011;56605;51.516;6.742;2022-10-16T11:33:59;1.58;;;0.77;;
31284;SDS011;56605;51.516;6.742;2022-10-16T11:36:28;2.45;;;0.93;;
31284;SDS011;56605;51.516;6.742;2022-10-16T11:41:42;5.15;;;0.98;;
31284;SDS011;56605;51.516;6.742;2022-10-16T11:44:13;1.80;;;0.73;;
31284;SDS011;56605;51.516;6.742;2022-10-16T11:46:42;2.38;;;0.50;;
31284;SDS011;56605;51.516;6.742;2022-10-16T11:49:12;3.65;;;0.70;;
31284;SDS011;56605;51.516;6.742;2022-10-16T11:51:40;1.70;;;0.60;;
31284;SDS011;56605;51.516;6.742;2022-10-16T11:56:41;2.28;;;1.00;;
31284;SDS011;56605;51.516;6.742;2022-10-16T12:01:47;3.00;;;0.75;;
31284;SDS011;56605;51.516;6.742;2022-10-16T12:06:52;3.15;;;0.70;;
31284;SDS011;56605;51.516;6.742;2022-10-16T12:09:28;1.95;;;0.65;;
31284;SDS011;56605;51.516;6.742;2022-10-16T12:11:54;7.20;;;0.90;;
31284;SDS011;56605;51.516;6.742;2022-10-16T12:14:21;3.92;;;1.00;;
31284;SDS011;56605;51.516;6.742;2022-10-16T12:19:18;2.58;;;0.60;;
31284;SDS011;56605;51.516;6.742;2022-10-16T12:21:44;4.32;;;0.77;;
31284;SDS011;56605;51.516;6.742;2022-10-16T12:26:54;2.22;;;0.57;;
31284;SDS011;56605;51.516;6.742;2022-10-16T12:29:28;3.60;;;0.50;;
31284;SDS011;56605;51.516;6.742;2022-10-16T12:31:55;2.00;;;0.60;;
31284;SDS011;56605;51.516;6.742;2022-10-16T12:34:29;2.28;;;0.77;;
31284;SDS011;56605;51.516;6.742;2022-10-16T12:37:07;0.70;;;0.50;;
31284;SDS011;56605;51.516;6.742;2022-10-16T12:39:32;2.90;;;1.00;;
31284;SDS011;56605;51.516;6.742;2022-10-16T12:42:02;2.03;;;0.60;;
31284;SDS011;56605;51.516;6.742;2022-10-16T12:44:31;3.25;;;1.15;;
31284;SDS011;56605;51.516;6.742;2022-10-16T12:46:57;6.20;;;0.75;;
31284;SDS011;56605;51.516;6.742;2022-10-16T12:51:47;3.05;;;0.70;;
31284;SDS011;56605;51.516;6.742;2022-10-16T12:54:17;2.80;;;0.97;;
31284;SDS011;56605;51.516;6.742;2022-10-16T13:09:35;1.42;;;0.80;;
31284;SDS011;56605;51.516;6.742;2022-10-16T13:17:07;1.88;;;0.80;;
31284;SDS011;56605;51.516;6.742;2022-10-16T13:22:24;5.60;;;1.10;;
31284;SDS011;56605;51.516;6.742;2022-10-16T13:27:56;4.10;;;0.88;;
31284;SDS011;56605;51.516;6.742;2022-10-16T13:30:30;1.52;;;0.70;;
31284;SDS011;56605;51.516;6.742;2022-10-16T13:32:58;8.43;;;1.58;;
31284;SDS011;56605;51.516;6.742;2022-10-16T13:35:25;1.48;;;0.82;;
31284;SDS011;56605;51.516;6.742;2022-10-16T13:37:51;2.33;;;0.90;;
31284;SDS011;56605;51.516;6.742;2022-10-16T13:40:20;3.33;;;0.90;;
31284;SDS011;56605;51.516;6.742;2022-10-16T13:42:46;2.50;;;0.95;;
31284;SDS011;56605;51.516;6.742;2022-10-16T13:45:18;3.53;;;0.90;;
31284;SDS011;56605;51.516;6.742;2022-10-16T13:47:43;1.60;;;0.75;;
31284;SDS011;56605;51.516;6.742;2022-10-16T13:50:12;2.50;;;0.70;;
31284;SDS011;56605;51.516;6.742;2022-10-16T13:52:38;2.13;;;0.80;;
31284;SDS011;56605;51.516;6.742;2022-10-16T13:55:04;1.42;;;0.52;;
31284;SDS011;56605;51.516;6.742;2022-10-16T13:57:29;3.78;;;0.60;;
31284;SDS011;56605;51.516;6.742;2022-10-16T13:59:54;6.50;;;0.90;;
31284;SDS011;56605;51.516;6.742;2022-10-16T14:04:45;1.40;;;0.50;;
31284;SDS011;56605;51.516;6.742;2022-10-16T14:07:14;2.80;;;0.60;;
31284;SDS011;56605;51.516;6.742;2022-10-16T14:09:42;3.67;;;0.85;;
31284;SDS011;56605;51.516;6.742;2022-10-16T14:12:08;4.37;;;1.20;;
31284;SDS011;56605;51.516;6.742;2022-10-16T14:14:35;1.92;;;0.82;;
31284;SDS011;56605;51.516;6.742;2022-10-16T14:17:05;2.38;;;0.82;;
31284;SDS011;56605;51.516;6.742;2022-10-16T14:19:30;3.42;;;1.17;;
31284;SDS011;56605;51.516;6.742;2022-10-16T14:21:56;3.15;;;1.02;;
31284;SDS011;56605;51.516;6.742;2022-10-16T14:24:25;6.10;;;1.55;;
31284;SDS011;56605;51.516;6.742;2022-10-16T14:26:51;5.78;;;0.70;;
31284;SDS011;56605;51.516;6.742;2022-10-16T14:29:19;3.50;;;0.90;;
31284;SDS011;56605;51.516;6.742;2022-10-16T14:31:57;4.65;;;1.00;;
31284;SDS011;56605;51.516;6.742;2022-10-16T14:34:23;2.15;;;0.75;;
31284;SDS011;56605;51.516;6.742;2022-10-16T14:36:49;3.90;;;1.10;;
31284;SDS011;56605;51.516;6.742;2022-10-16T14:39:17;2.05;;;0.60;;
31284;SDS011;56605;51.516;6.742;2022-10-16T14:41:44;4.10;;;1.30;;
31284;SDS011;56605;51.516;6.742;2022-10-16T14:44:11;4.75;;;1.30;;
31284;SDS011;56605;51.516;6.742;2022-10-16T14:46:37;4.93;;;1.05;;
31284;SDS011;56605;51.516;6.742;2022-10-16T14:51:34;5.47;;;1.13;;
31284;SDS011;56605;51.516;6.742;2022-10-16T14:53:59;5.18;;;1.35;;
31284;SDS011;56605;51.516;6.742;2022-10-16T14:56:25;4.38;;;1.27;;
31284;SDS011;56605;51.516;6.742;2022-10-16T14:58:53;7.70;;;1.50;;
31284;SDS011;56605;51.516;6.742;2022-10-16T15:01:18;5.85;;;1.70;;
31284;SDS011;56605;51.516;6.742;2022-10-16T15:03:44;4.05;;;1.15;;
31284;SDS011;56605;51.516;6.742;2022-10-16T15:06:10;2.90;;;1.00;;
31284;SDS011;56605;51.516;6.742;2022-10-16T15:08:36;5.35;;;1.35;;
31284;SDS011;56605;51.516;6.742;2022-10-16T15:11:01;4.40;;;1.20;;
31284;SDS011;56605;51.516;6.742;2022-10-16T15:13:26;6.53;;;1.40;;
31284;SDS011;56605;51.516;6.742;2022-10-16T15:15:51;6.03;;;1.20;;
31284;SDS011;56605;51.516;6.742;2022-10-16T15:18:17;6.95;;;1.52;;
31284;SDS011;56605;51.516;6.742;2022-10-16T15:20:45;4.45;;;1.52;;
31284;SDS011;56605;51.516;6.742;2022-10-16T15:23:16;3.97;;;1.42;;
31284;SDS011;56605;51.516;6.742;2022-10-16T15:25:42;5.15;;;1.80;;
31284;SDS011;56605;51.516;6.742;2022-10-16T15:28:08;8.35;;;1.70;;
31284;SDS011;56605;51.516;6.742;2022-10-16T15:30:34;9.93;;;2.40;;
31284;SDS011;56605;51.516;6.742;2022-10-16T15:32:59;3.72;;;2.13;;
31284;SDS011;56605;51.516;6.742;2022-10-16T15:35:24;5.10;;;1.95;;
31284;SDS011;56605;51.516;6.742;2022-10-16T15:37:49;4.30;;;2.13;;
31284;SDS011;56605;51.516;6.742;2022-10-16T15:40:16;5.32;;;1.85;;
31284;SDS011;56605;51.516;6.742;2022-10-16T15:42:41;3.88;;;1.85;;
31284;SDS011;56605;51.516;6.742;2022-10-16T15:45:06;3.87;;;2.00;;
31284;SDS011;56605;51.516;6.742;2022-10-16T15:47:33;9.13;;;1.80;;
31284;SDS011;56605;51.516;6.742;2022-10-16T15:49:58;6.90;;;2.97;;
31284;SDS011;56605;51.516;6.742;2022-10-16T15:52:23;9.70;;;3.90;;
31284;SDS011;56605;51.516;6.742;2022-10-16T15:54:49;8.27;;;5.35;;
31284;SDS011;56605;51.516;6.742;2022-10-16T15:57:14;4.35;;;2.20;;
31284;SDS011;56605;51.516;6.742;2022-10-16T15:59:39;3.80;;;1.90;;
31284;SDS011;56605;51.516;6.742;2022-10-16T16:02:04;4.37;;;1.80;;
31284;SDS011;56605;51.516;6.742;2022-10-16T16:04:30;3.20;;;1.60;;
31284;SDS011;56605;51.516;6.742;2022-10-16T16:06:55;4.95;;;1.48;;
31284;SDS011;56605;51.516;6.742;2022-10-16T16:09:20;3.37;;;1.33;;
31284;SDS011;56605;51.516;6.742;2022-10-16T16:11:46;2.23;;;1.60;;
31284;SDS011;56605;51.516;6.742;2022-10-16T16:14:14;5.68;;;1.42;;
31284;SDS011;56605;51.516;6.742;2022-10-16T16:16:39;4.03;;;1.83;;
31284;SDS011;56605;51.516;6.742;2022-10-16T16:19:05;5.87;;;1.87;;
31284;SDS011;56605;51.516;6.742;2022-10-16T16:21:31;5.13;;;1.60;;
31284;SDS011;56605;51.516;6.742;2022-10-16T16:23:56;4.28;;;1.65;;
31284;SDS011;56605;51.516;6.742;2022-10-16T16:26:23;6.10;;;3.43;;
31284;SDS011;56605;51.516;6.742;2022-10-16T16:28:50;4.90;;;2.92;;
31284;SDS011;56605;51.516;6.742;2022-10-16T16:31:16;4.10;;;2.03;;
31284;SDS011;56605;51.516;6.742;2022-10-16T16:33:41;8.07;;;2.75;;
31284;SDS011;56605;51.516;6.742;2022-10-16T16:36:07;6.22;;;1.98;;
31284;SDS011;56605;51.516;6.742;2022-10-16T16:38:32;3.47;;;1.75;;